Hamburg Helmut Schmidt Airport

EDDH · Hamburg, Alemanha

História da METAR EDDH · Hamburg Airport

Abaixo você vê METARs dos últimos dias. Selecione um ano para navegar pelos METARs mais antigos, a partir do ano 2007.

7 de dezembro de 2022

Hora Código Clima Temp. Visibilidade Tecto Vento METAR/SPECI
04:50
V
2 °C 10 km+ - 290° 290° 8 kt METAR EDDH 070350Z AUTO 29008KT CAVOK 02/01 Q1010 NOSIG
04:20
V
2 °C 10 km+ - 280° 280° 8 kt METAR EDDH 070320Z AUTO 28008KT CAVOK 02/01 Q1010 NOSIG
03:50
V
3 °C 10 km+ - 270° 270° 7 kt METAR EDDH 070250Z AUTO 27007KT 9999 FEW020 SCT026 03/02 Q1010 NOSIG
03:20
V
3 °C 10 km+ - 260° 260° 7 kt METAR EDDH 070220Z AUTO 26007KT CAVOK 03/02 Q1010 NOSIG
02:50
V
3 °C 10 km+ - 250° 250° 8 kt METAR EDDH 070150Z AUTO 25008KT 9999 SCT007 SCT021 03/02 Q1010 NOSIG
02:20
I
3 °C 10 km+ 700 ft 260° 260° 7 kt METAR EDDH 070120Z AUTO 26007KT 230V290 9999 BKN007 BKN029 BKN038 03/03 Q1010 BECMG SCT012
01:50
I
3 °C 10 km+ 600 ft 240° 240° 6 kt METAR EDDH 070050Z AUTO 24006KT 9999 VCSH BKN006 BKN033 FEW///CB 03/02 Q1011 TEMPO SCT012
01:20
I
3 °C 9 km 500 ft 230° 230° 6 kt METAR EDDH 070020Z AUTO 23006KT 9000 BKN005 OVC040 03/02 Q1011 TEMPO SCT012
00:50
I
3 °C 10 km+ 500 ft 270° 270° 4 kt METAR EDDH 062350Z AUTO 27004KT 230V310 9999 BKN005 BKN024 03/02 Q1011 TEMPO SCT012
00:20
I
3 °C 10 km+ 600 ft 250° 250° 7 kt METAR EDDH 062320Z AUTO 25007KT 220V280 9999 VCSH BKN006 BKN032 FEW///CB 03/02 Q1012 TEMPO SHRA SCT012

6 de dezembro de 2022

Hora Código Clima Temp. Visibilidade Tecto Vento METAR/SPECI
23:50
V
2 °C 10 km+ 3.700 ft 230° 230° 6 kt METAR EDDH 062250Z AUTO 23006KT 9999 FEW011 BKN037 02/02 Q1012 TEMPO SHRA SCT015CB
23:20
M
2 °C 8 km 2.900 ft 230° 230° 6 kt METAR EDDH 062220Z AUTO 23006KT 8000 -SHRA FEW007 BKN029 OVC035 FEW///CB 02/02 Q1012 TEMPO SHRA SCT015CB
22:50
V
2 °C 10 km+ - 220° 220° 5 kt METAR EDDH 062150Z AUTO 22005KT 9999 FEW025 02/01 Q1013 TEMPO SHRA SCT015CB
22:20
M
1 °C 10 km+ 2.400 ft 220° 220° 6 kt METAR EDDH 062120Z AUTO 22006KT 9999 BKN024 BKN042 01/00 Q1013 TEMPO SHRA SCT015CB
21:50
M
1 °C 10 km+ 2.200 ft 210° 210° 6 kt METAR EDDH 062050Z AUTO 21006KT 9999 BKN022 01/00 Q1013 TEMPO SHRA SCT015CB
21:20
M
1 °C 10 km+ 2.100 ft 200° 200° 5 kt METAR EDDH 062020Z AUTO 20005KT 9999 FEW014 BKN021 01/M00 Q1014 NOSIG
20:50
V
0 °C 10 km+ - 220° 220° 3 kt METAR EDDH 061950Z AUTO 22003KT 9999 SCT018 00/M00 Q1014 NOSIG
20:20
V
0 °C 10 km+ - Var Var 1 kt METAR EDDH 061920Z AUTO VRB01KT 9999 FEW025 00/M00 Q1014 NOSIG
19:50
V
0 °C 10 km+ - 220° 220° 1 kt METAR EDDH 061850Z AUTO 22001KT 9999 FEW030 00/M00 Q1014 NOSIG
19:20
V
1 °C 10 km+ 3.000 ft 270° 270° 3 kt METAR EDDH 061820Z AUTO 27003KT 9999 FEW025 BKN030 01/M00 Q1015 NOSIG
18:50
V
1 °C 10 km+ 3.000 ft 280° 280° 5 kt METAR EDDH 061750Z AUTO 28005KT 9999 BKN030 01/M00 Q1015 NOSIG
18:20
M
1 °C 10 km+ 2.700 ft 280° 280° 4 kt METAR EDDH 061720Z AUTO 28004KT 9999 BKN027 BKN031 01/M00 Q1015 NOSIG
17:50
V
1 °C 10 km+ - 280° 280° 5 kt METAR EDDH 061650Z AUTO 28005KT 9999 SCT030 01/M00 Q1015 NOSIG
17:20
M
2 °C 10 km+ 2.900 ft 270° 270° 5 kt METAR EDDH 061620Z AUTO 27005KT 9999 BKN029 02/00 Q1015 BECMG 21005KT
16:50
V
2 °C 10 km+ - 290° 290° 6 kt METAR EDDH 061550Z AUTO 29006KT 9999 FEW013 SCT022 02/01 Q1015 BECMG 21005KT
16:20
M
3 °C 10 km+ 2.000 ft 270° 270° 5 kt METAR EDDH 061520Z AUTO 27005KT 9999 FEW012 OVC020 03/01 Q1015 BECMG 21005KT
15:50
M
3 °C 10 km+ 1.800 ft 270° 270° 3 kt METAR EDDH 061450Z AUTO 27003KT 250V310 9999 FEW009 OVC018 03/02 Q1015 NOSIG
15:20
M
3 °C 10 km+ 1.800 ft 310° 310° 5 kt METAR EDDH 061420Z AUTO 31005KT 9999 SCT010 OVC018 03/02 Q1015 TEMPO SCT010
14:50
M
3 °C 10 km+ 1.200 ft 300° 300° 6 kt METAR EDDH 061350Z AUTO 30006KT 9999 FEW007 OVC012 03/02 Q1015 BECMG SCT012
14:20
I
3 °C 10 km+ 500 ft 300° 300° 8 kt METAR EDDH 061320Z AUTO 30008KT 9999 BKN005 OVC011 03/02 Q1015 BECMG SCT015
13:50
L
3 °C 10 km+ 400 ft 300° 300° 8 kt METAR EDDH 061250Z AUTO 30008KT 9999 BKN004 03/02 Q1016 BECMG BKN005
13:20
L
3 °C 10 km+ 400 ft 320° 320° 8 kt METAR EDDH 061220Z AUTO 32008KT 9999 OVC004 03/02 Q1016 BECMG BKN005
12:50
L
3 °C 10 km+ 400 ft 310° 310° 7 kt METAR EDDH 061150Z AUTO 31007KT 9999 BKN004 03/03 Q1016 BECMG BKN005
12:20
I
3 °C 10 km+ 500 ft 310° 310° 8 kt METAR EDDH 061120Z AUTO 31008KT 9999 BKN005 03/03 Q1016 NOSIG
11:50
I
4 °C 10 km+ 500 ft 310° 310° 8 kt METAR EDDH 061050Z AUTO 31008KT 9999 OVC005 04/03 Q1016 NOSIG
11:20
I
4 °C 10 km+ 600 ft 310° 310° 7 kt METAR EDDH 061020Z AUTO 31007KT 9999 OVC006 04/03 Q1016 NOSIG
10:50
I
4 °C 10 km+ 600 ft 320° 320° 8 kt METAR EDDH 060950Z AUTO 32008KT 9999 OVC006 04/03 Q1016 NOSIG
10:20
I
4 °C 10 km+ 600 ft 320° 320° 9 kt METAR EDDH 060920Z AUTO 32009KT 9999 OVC006 04/03 Q1016 NOSIG
09:50
I
4 °C 10 km+ 600 ft 320° 320° 9 kt METAR EDDH 060850Z AUTO 32009KT 9999 OVC006 04/03 Q1016 RE// NOSIG
09:20
I
4 °C 10 km+ 600 ft 320° 320° 8 kt METAR EDDH 060820Z AUTO 32008KT 9999 OVC006 04/03 Q1016 NOSIG
08:50
I
4 °C 10 km+ 600 ft 320° 320° 8 kt METAR EDDH 060750Z AUTO 32008KT 9999 OVC006 04/03 Q1016 NOSIG
08:20
I
4 °C 7 km 600 ft 330° 330° 8 kt METAR EDDH 060720Z AUTO 33008KT 7000 OVC006 04/03 Q1016 NOSIG
07:50
I
4 °C 10 km+ 600 ft 330° 330° 9 kt METAR EDDH 060650Z AUTO 33009KT 9999 -RADZ BKN006 04/03 Q1016 NOSIG
07:20
I
4 °C 10 km+ 500 ft 320° 320° 8 kt METAR EDDH 060620Z AUTO 32008KT 9999 -RA BKN005 04/03 Q1016 NOSIG
06:50
I
4 °C 3,7 km 500 ft 320° 320° 6 kt METAR EDDH 060550Z AUTO 32006KT 3700 -SHRA BR BKN005 BKN013 FEW///TCU 04/04 Q1016 REDZ TEMPO 2000 RA BKN004
06:20
I
4 °C 4,4 km 700 ft 330° 330° 6 kt METAR EDDH 060520Z AUTO 33006KT 4400 BR BKN007 BKN013 04/04 Q1016 TEMPO 2000 DZRA BKN007
05:50
M
4 °C 10 km+ 1.300 ft 340° 340° 5 kt METAR EDDH 060450Z AUTO 34005KT 9999 SCT008 OVC013 04/04 Q1016 TEMPO BKN007
05:20
I
4 °C 10 km+ 500 ft 330° 330° 6 kt METAR EDDH 060420Z AUTO 33006KT 9999 -DZ BKN005 BKN011 BKN021 04/04 Q1016 NOSIG
04:50
I
4 °C 8 km 500 ft 320° 320° 5 kt METAR EDDH 060350Z AUTO 32005KT 8000 -DZ BKN005 BKN008 BKN015 04/04 Q1016 TEMPO BKN004
04:20
I
4 °C 6 km 500 ft 320° 320° 5 kt METAR EDDH 060320Z AUTO 32005KT 6000 -RADZ BKN005 BKN008 04/04 Q1016 TEMPO 4000 BKN004
03:50
I
4 °C 8 km 500 ft 330° 330° 4 kt METAR EDDH 060250Z AUTO 33004KT 310V010 8000 -RADZ BKN005 BKN009 04/04 Q1016 TEMPO 4000 BKN004
03:20
L
4 °C 4,6 km 400 ft 340° 340° 3 kt METAR EDDH 060220Z AUTO 34003KT 4600 -RADZ BR BKN004 BKN010 OVC017 04/04 Q1017 TEMPO 5000
02:50
L
4 °C 5 km 400 ft 330° 330° 3 kt METAR EDDH 060150Z AUTO 33003KT 5000 -RADZ BR BKN004 BKN015 OVC026 04/03 Q1017 TEMPO 4000
02:20
L
3 °C 6 km 300 ft 320° 320° 3 kt METAR EDDH 060120Z AUTO 32003KT 6000 -RA BKN003 BKN015 BKN027 03/03 Q1017 TEMPO 4000
01:50
L
3 °C 4,6 km 200 ft 310° 310° 3 kt METAR EDDH 060050Z AUTO 31003KT 4600 -DZ BR BKN002 BKN008 03/03 Q1017 REDZ TEMPO 5000
01:20
L
3 °C 4,3 km 200 ft 310° 310° 2 kt METAR EDDH 060020Z AUTO 31002KT 4300 -RADZ BR BKN002 BKN010 03/03 Q1017 TEMPO 5000
00:50
L
3 °C 6 km 200 ft 290° 290° 2 kt METAR EDDH 052350Z AUTO 29002KT 6000 BKN002 03/03 Q1017 TEMPO 4000
00:20
L
3 °C 5 km 200 ft Var Var 1 kt METAR EDDH 052320Z AUTO VRB01KT 5000 -RA BR BKN002 BKN014 03/03 Q1017 TEMPO 4000

5 de dezembro de 2022

Hora Código Clima Temp. Visibilidade Tecto Vento METAR/SPECI
23:50
L
3 °C 6 km 200 ft Var Var 1 kt METAR EDDH 052250Z AUTO VRB01KT 6000 -RA BKN002 BKN011 03/02 Q1018 TEMPO 4000
23:20
L
3 °C 5 km 300 ft Var Var 2 kt METAR EDDH 052220Z AUTO VRB02KT 5000 -RA BR BKN003 BKN007 OVC011 03/02 Q1018 TEMPO 4000 BKN005
22:50
L
3 °C 6 km 400 ft 240° 240° 2 kt METAR EDDH 052150Z AUTO 24002KT 6000 -RA BKN004 BKN009 BKN012 03/02 Q1018 TEMPO 4000 BKN005
22:20
L
3 °C 7 km 400 ft 220° 220° 2 kt METAR EDDH 052120Z AUTO 22002KT 7000 -RADZ OVC004 03/02 Q1018 TEMPO 4000 BKN005
21:50
I
2 °C 8 km 700 ft Var Var 1 kt METAR EDDH 052050Z AUTO VRB01KT 8000 -RA OVC007 02/02 Q1018 TEMPO BKN004
21:20
I
2 °C 9 km 800 ft Var Var 2 kt METAR EDDH 052020Z AUTO VRB02KT 9000 -RA OVC008 02/02 Q1018 NOSIG
20:50
I
2 °C 7 km 900 ft 290° 290° 2 kt METAR EDDH 051950Z AUTO 29002KT 7000 -RADZ FEW005 BKN009 OVC014 02/02 Q1018 TEMPO BKN007
20:20
M
2 °C 7 km 1.400 ft 290° 290° 2 kt METAR EDDH 051920Z AUTO 29002KT 7000 -RA FEW004 OVC014 02/02 Q1018 TEMPO 4000 BKN005
19:50
M
2 °C 7 km 1.700 ft Var Var 2 kt METAR EDDH 051850Z AUTO VRB02KT 7000 -RA FEW004 OVC017 02/02 Q1018 TEMPO 4000 BKN005
19:20
M
2 °C 8 km 2.100 ft 300° 300° 3 kt METAR EDDH 051820Z AUTO 30003KT 8000 -RA FEW005 BKN021 BKN033 02/02 Q1018 TEMPO 4000 BKN005
18:50
M
2 °C 7 km 3.600 ft 310° 310° 2 kt METAR EDDH 051750Z AUTO 31002KT 7000 -RA SCT005 BKN036 02/02 Q1018 TEMPO 4000 BKN005
18:20
I
2 °C 8 km 500 ft Var Var 1 kt METAR EDDH 051720Z AUTO VRB01KT 8000 -RA BKN005 BKN014 BKN024 02/02 Q1018 TEMPO 4000 BKN004
17:50
I
2 °C 3,3 km 2.600 ft 230° 230° 1 kt METAR EDDH 051650Z AUTO 23001KT 9000 3300 -RA BR SCT005 BKN026 BKN032 02/02 Q1018 TEMPO 4000 BKN007
17:20
M
2 °C 8 km 1.600 ft 080° 080° 1 kt METAR EDDH 051620Z AUTO 08001KT 8000 -RA BR SCT006 BKN016 02/02 Q1018 TEMPO 4000 BKN007
16:50
I
2 °C 4,3 km 1.600 ft 100° 100° 2 kt METAR EDDH 051550Z AUTO 10002KT 9000 4300 -RADZ BR SCT006 BKN016 02/01 Q1018 TEMPO 4000 BKN007
16:20
M
2 °C 8 km 1.700 ft 090° 090° 2 kt METAR EDDH 051520Z AUTO 09002KT 8000 -RA SCT005 BKN017 02/02 Q1018 TEMPO 4000 BKN007
15:50
M
2 °C 7 km 1.700 ft 090° 090° 2 kt METAR EDDH 051450Z AUTO 09002KT 7000 -RA FEW001 SCT009 OVC017 02/01 Q1018 TEMPO 4000 BKN007
15:20
M
3 °C 9 km 1.100 ft 080° 080° 3 kt METAR EDDH 051420Z AUTO 08003KT 9000 -RA FEW001 BKN011 OVC016 03/01 Q1018 TEMPO 4000 BKN007
14:50
M
3 °C 10 km+ 1.600 ft 090° 090° 3 kt METAR EDDH 051350Z AUTO 09003KT 9999 -RA FEW007 SCT010 OVC016 03/02 Q1018 TEMPO 4000 BKN007
14:20
M
3 °C 10 km+ 1.700 ft 080° 080° 5 kt METAR EDDH 051320Z AUTO 08005KT 9999 -RA SCT007 OVC017 03/02 Q1018 TEMPO 4000 BKN007
13:50
M
3 °C 10 km+ 1.800 ft 070° 070° 4 kt METAR EDDH 051250Z AUTO 07004KT 9999 -RADZ SCT007 OVC018 03/02 Q1018 TEMPO 4000 OVC007
13:20
M
3 °C 9 km 1.000 ft 070° 070° 4 kt METAR EDDH 051220Z AUTO 07004KT 030V100 9000 -RA SCT007 BKN010 OVC017 03/02 Q1019 TEMPO 4000 OVC007
12:50
I
3 °C 9 km 700 ft 070° 070° 5 kt METAR EDDH 051150Z AUTO 07005KT 9000 -RA BKN007 BKN012 OVC018 03/02 Q1019 TEMPO 4000
12:20
M
3 °C 8 km 1.100 ft 070° 070° 6 kt METAR EDDH 051120Z AUTO 07006KT 8000 -RA SCT007 BKN011 OVC017 03/02 Q1019 TEMPO 4000 BKN007
11:50
I
3 °C 7 km 700 ft 080° 080° 6 kt METAR EDDH 051050Z AUTO 08006KT 050V110 7000 -RA OVC007 03/02 Q1019 TEMPO 4000
11:20
I
3 °C 7 km 700 ft 080° 080° 6 kt METAR EDDH 051020Z AUTO 08006KT 7000 -RADZ BKN007 OVC010 03/02 Q1019 TEMPO 4000
10:50
I
3 °C 6 km 600 ft 090° 090° 7 kt METAR EDDH 050950Z AUTO 09007KT 050V110 6000 -RADZ OVC006 03/02 Q1019 TEMPO 4000
10:20
I
3 °C 8 km 700 ft 090° 090° 6 kt METAR EDDH 050920Z AUTO 09006KT 8000 BKN007 03/02 Q1019 TEMPO 4000
09:50
I
3 °C 10 km+ 800 ft 080° 080° 5 kt METAR EDDH 050850Z AUTO 08005KT 9999 OVC008 03/02 Q1019 TEMPO 4000 -DZ
09:20
I
4 °C 9 km 800 ft 060° 060° 8 kt METAR EDDH 050820Z AUTO 06008KT 9000 OVC008 04/02 Q1019 TEMPO 4000 -DZ
08:50
I
4 °C 8 km 800 ft 070° 070° 7 kt METAR EDDH 050750Z AUTO 07007KT 040V110 8000 BKN008 04/03 Q1019 TEMPO 4000 -DZ
08:20
I
4 °C 8 km 800 ft 070° 070° 9 kt METAR EDDH 050720Z AUTO 07009KT 8000 BKN008 04/03 Q1019 TEMPO 4000 -DZRA
07:50
I
4 °C 8 km 800 ft 060° 060° 9 kt METAR EDDH 050650Z AUTO 06009KT 8000 OVC008 04/03 Q1019 TEMPO 4000 -DZRA
07:20
I
4 °C 8 km 900 ft 050° 050° 10 kt METAR EDDH 050620Z AUTO 05010KT 8000 -RA BKN009 OVC012 04/03 Q1019 TEMPO 4000
06:50
I
4 °C 7 km 700 ft 060° 060° 7 kt METAR EDDH 050550Z AUTO 06007KT 7000 BKN007 OVC010 04/04 Q1019 TEMPO 4000 -DZ
06:20
I
4 °C 5 km 700 ft 060° 060° 8 kt METAR EDDH 050520Z AUTO 06008KT 5000 BR OVC007 04/04 Q1019 TEMPO 4000 -DZ
05:50
I
5 °C 4,8 km 700 ft 070° 070° 7 kt METAR EDDH 050450Z AUTO 07007KT 4800 -DZ BR OVC007 05/04 Q1019 NOSIG
05:20
I
5 °C 4,8 km 600 ft 060° 060° 10 kt METAR EDDH 050420Z AUTO 06010KT 4800 -DZ BR OVC006 05/04 Q1019 NOSIG
04:50
I
5 °C 7 km 600 ft 040° 040° 8 kt METAR EDDH 050350Z AUTO 04008KT 7000 OVC006 05/04 Q1019 TEMPO 4000 -DZ
04:20
I
5 °C 5 km 600 ft 050° 050° 6 kt METAR EDDH 050320Z AUTO 05006KT 5000 -DZ BR OVC006 05/04 Q1019 TEMPO 4000
03:50
I
5 °C 5 km 500 ft 060° 060° 7 kt METAR EDDH 050250Z AUTO 06007KT 030V090 5000 BR OVC005 05/04 Q1019 TEMPO 4000 -DZ
03:20
I
4 °C 9 km 600 ft 050° 050° 9 kt METAR EDDH 050220Z AUTO 05009KT 9000 OVC006 04/04 Q1019 NOSIG
02:50
I
4 °C 10 km+ 700 ft 060° 060° 6 kt METAR EDDH 050150Z AUTO 06006KT 9999 OVC007 04/03 Q1019 NOSIG
02:20
I
4 °C 9 km 700 ft 060° 060° 6 kt METAR EDDH 050120Z AUTO 06006KT 020V090 9000 OVC007 04/03 Q1019 NOSIG
01:50
I
4 °C 10 km+ 700 ft 060° 060° 7 kt METAR EDDH 050050Z AUTO 06007KT 030V090 9999 BKN007 04/03 Q1019 NOSIG
01:20
I
4 °C 6 km 900 ft 050° 050° 7 kt METAR EDDH 050020Z AUTO 05007KT 6000 BKN009 04/03 Q1019 TEMPO 4000 BR
00:50
I
4 °C 10 km+ 900 ft 060° 060° 8 kt METAR EDDH 042350Z AUTO 06008KT 9999 OVC009 04/03 Q1020 NOSIG
00:20
I
4 °C 10 km+ 900 ft 060° 060° 10 kt METAR EDDH 042320Z AUTO 06010KT 9999 OVC009 04/03 Q1020 NOSIG

4 de dezembro de 2022

Hora Código Clima Temp. Visibilidade Tecto Vento METAR/SPECI
23:50
I
4 °C 10 km+ 900 ft 060° 060° 9 kt METAR EDDH 042250Z AUTO 06009KT 9999 OVC009 04/02 Q1020 NOSIG
23:20
I
4 °C 10 km+ 900 ft 050° 050° 8 kt METAR EDDH 042220Z AUTO 05008KT 020V080 9999 OVC009 04/02 Q1020 NOSIG
22:50
I
4 °C 10 km+ 900 ft 060° 060° 8 kt METAR EDDH 042150Z AUTO 06008KT 020V090 9999 OVC009 04/02 Q1020 NOSIG
22:20
M
4 °C 10 km+ 1.000 ft 050° 050° 8 kt METAR EDDH 042120Z AUTO 05008KT 010V070 9999 BKN010 OVC024 OVC037 04/02 Q1020 BECMG BKN009
21:50
M
4 °C 10 km+ 1.100 ft 060° 060° 7 kt METAR EDDH 042050Z AUTO 06007KT 9999 BKN011 BKN024 OVC038 04/02 Q1021 BECMG BKN009
21:20
M
4 °C 10 km+ 1.200 ft 060° 060° 8 kt METAR EDDH 042020Z AUTO 06008KT 9999 BKN012 OVC023 OVC039 04/02 Q1021 BECMG BKN009
20:50
M
4 °C 10 km+ 1.200 ft 060° 060° 8 kt METAR EDDH 041950Z AUTO 06008KT 9999 BKN012 OVC019 04/02 Q1021 BECMG BKN009
20:20
M
4 °C 10 km+ 1.200 ft 070° 070° 8 kt METAR EDDH 041920Z AUTO 07008KT 9999 BKN012 OVC019 04/02 Q1021 BECMG BKN009
19:50
M
4 °C 10 km+ 1.200 ft 080° 080° 10 kt METAR EDDH 041850Z AUTO 08010KT 050V110 9999 BKN012 OVC019 04/02 Q1021 BECMG BKN009
19:20
M
4 °C 10 km+ 1.000 ft 070° 070° 10 kt METAR EDDH 041820Z AUTO 07010KT 9999 OVC010 04/02 Q1021 BECMG BKN008
18:50
I
4 °C 10 km+ 900 ft 070° 070° 12 kt METAR EDDH 041750Z AUTO 07012KT 9999 OVC009 04/02 Q1021 NOSIG
18:20
I
4 °C 10 km+ 900 ft 070° 070° 10 kt METAR EDDH 041720Z AUTO 07010KT 040V110 9999 OVC009 04/02 Q1021 NOSIG
17:50
I
4 °C 10 km+ 900 ft 070° 070° 11 kt METAR EDDH 041650Z AUTO 07011KT 9999 OVC009 04/02 Q1020 TEMPO BKN010
17:20
M
4 °C 10 km+ 1.000 ft 060° 060° 9 kt METAR EDDH 041620Z AUTO 06009KT 020V090 9999 OVC010 04/02 Q1020 TEMPO BKN009
16:50
M
4 °C 10 km+ 1.000 ft 070° 070° 12 kt METAR EDDH 041550Z AUTO 07012KT 9999 OVC010 04/02 Q1021 TEMPO BKN009
16:20
M
4 °C 10 km+ 1.000 ft 070° 070° 12 kt METAR EDDH 041520Z AUTO 07012KT 9999 OVC010 04/02 Q1021 TEMPO BKN009
15:50
M
4 °C 10 km+ 1.200 ft 070° 070° 10 kt METAR EDDH 041450Z AUTO 07010KT 9999 OVC012 04/01 Q1021 NOSIG
15:20
M
3 °C 10 km+ 1.300 ft 070° 070° 9 kt METAR EDDH 041420Z AUTO 07009KT 040V100 9999 OVC013 03/01 Q1021 NOSIG
14:50
M
3 °C 10 km+ 1.400 ft 060° 060° 8 kt METAR EDDH 041350Z AUTO 06008KT 9999 BKN014 OVC023 OVC033 03/01 Q1021 TEMPO BKN015
14:20
M
3 °C 10 km+ 1.500 ft 060° 060° 9 kt METAR EDDH 041320Z AUTO 06009KT 9999 BKN015 BKN022 OVC031 03/00 Q1021 TEMPO BKN014
13:50
M
3 °C 10 km+ 1.500 ft 070° 070° 8 kt METAR EDDH 041250Z AUTO 07008KT 040V100 9999 BKN015 BKN020 OVC030 03/00 Q1021 TEMPO BKN013
13:20
M
3 °C 10 km+ 2.900 ft 060° 060° 6 kt METAR EDDH 041220Z AUTO 06006KT 030V090 9999 FEW020 OVC029 03/00 Q1021 NOSIG
12:50
M
2 °C 10 km+ 2.900 ft 050° 050° 6 kt METAR EDDH 041150Z AUTO 05006KT 9999 OVC029 02/M00 Q1022 NOSIG
12:20
V
2 °C 10 km+ 3.000 ft 050° 050° 8 kt METAR EDDH 041120Z AUTO 05008KT 020V080 9999 OVC030 02/M00 Q1022 NOSIG
11:50
V
2 °C 10 km+ 3.100 ft 060° 060° 8 kt METAR EDDH 041050Z AUTO 06008KT 9999 OVC031 02/M01 Q1022 NOSIG
11:20
V
2 °C 10 km+ 3.200 ft 050° 050° 8 kt METAR EDDH 041020Z AUTO 05008KT 9999 OVC032 02/M01 Q1022 NOSIG
10:50
V
1 °C 10 km+ 3.100 ft 060° 060° 9 kt METAR EDDH 040950Z AUTO 06009KT 9999 OVC031 01/M01 Q1022 NOSIG

Nós e terceiros acompanhamos seu comportamento na internet em nosso site com cookies. Se você continuar, nós assumimos que você concorda com nosso política de cookies.